sensor_id;sensor_type;location;lat;lon;timestamp;temperature;humidity
36458;DHT22;22480;50.546;12.292;2022-10-22T00:00:55;11.50;99.90
36458;DHT22;22480;50.546;12.292;2022-10-22T00:03:21;11.60;99.90
36458;DHT22;22480;50.546;12.292;2022-10-22T00:05:47;11.60;99.90
36458;DHT22;22480;50.546;12.292;2022-10-22T00:08:13;11.80;99.90
36458;DHT22;22480;50.546;12.292;2022-10-22T00:10:40;11.80;99.90
36458;DHT22;22480;50.546;12.292;2022-10-22T00:13:05;11.90;99.90
36458;DHT22;22480;50.546;12.292;2022-10-22T00:15:31;11.90;99.90
36458;DHT22;22480;50.546;12.292;2022-10-22T00:17:57;11.90;99.90
36458;DHT22;22480;50.546;12.292;2022-10-22T00:20:23;11.90;99.90
36458;DHT22;22480;50.546;12.292;2022-10-22T00:22:48;11.80;99.90
36458;DHT22;22480;50.546;12.292;2022-10-22T00:25:15;11.80;99.90
36458;DHT22;22480;50.546;12.292;2022-10-22T00:27:41;11.70;99.90
36458;DHT22;22480;50.546;12.292;2022-10-22T00:30:07;11.70;99.90
36458;DHT22;22480;50.546;12.292;2022-10-22T00:32:33;11.70;99.90
36458;DHT22;22480;50.546;12.292;2022-10-22T00:34:59;11.70;99.90
36458;DHT22;22480;50.546;12.292;2022-10-22T00:37:24;11.80;99.90
36458;DHT22;22480;50.546;12.292;2022-10-22T00:39:50;11.80;99.90
36458;DHT22;22480;50.546;12.292;2022-10-22T00:42:19;11.90;99.90
36458;DHT22;22480;50.546;12.292;2022-10-22T00:47:59;12.00;99.90
36458;DHT22;22480;50.546;12.292;2022-10-22T00:50:39;12.00;99.90
36458;DHT22;22480;50.546;12.292;2022-10-22T00:53:15;12.00;99.90
36458;DHT22;22480;50.546;12.292;2022-10-22T00:55:43;12.00;99.90
36458;DHT22;22480;50.546;12.292;2022-10-22T00:58:09;12.00;99.90
36458;DHT22;22480;50.546;12.292;2022-10-22T01:00:35;12.00;99.90
36458;DHT22;22480;50.546;12.292;2022-10-22T01:03:01;12.00;99.90
36458;DHT22;22480;50.546;12.292;2022-10-22T01:05:28;12.00;99.90
36458;DHT22;22480;50.546;12.292;2022-10-22T01:07:55;12.00;99.90
36458;DHT22;22480;50.546;12.292;2022-10-22T01:11:05;12.00;99.90
36458;DHT22;22480;50.546;12.292;2022-10-22T01:16:23;12.10;99.90
36458;DHT22;22480;50.546;12.292;2022-10-22T01:22:04;12.10;99.90
36458;DHT22;22480;50.546;12.292;2022-10-22T01:25:04;12.10;99.90
36458;DHT22;22480;50.546;12.292;2022-10-22T01:27:56;12.00;99.90
36458;DHT22;22480;50.546;12.292;2022-10-22T01:30:26;12.00;99.90
36458;DHT22;22480;50.546;12.292;2022-10-22T01:32:55;11.90;99.90
36458;DHT22;22480;50.546;12.292;2022-10-22T01:35:25;11.90;99.90
36458;DHT22;22480;50.546;12.292;2022-10-22T01:37:55;11.80;99.90
36458;DHT22;22480;50.546;12.292;2022-10-22T01:40:22;11.80;99.90
36458;DHT22;22480;50.546;12.292;2022-10-22T01:43:04;11.80;99.90
36458;DHT22;22480;50.546;12.292;2022-10-22T01:45:55;11.90;99.90
36458;DHT22;22480;50.546;12.292;2022-10-22T01:48:36;11.90;99.90
36458;DHT22;22480;50.546;12.292;2022-10-22T02:05:10;12.00;99.90
36458;DHT22;22480;50.546;12.292;2022-10-22T02:07:55;12.00;99.90
36458;DHT22;22480;50.546;12.292;2022-10-22T02:10:24;12.00;99.90
36458;DHT22;22480;50.546;12.292;2022-10-22T02:12:52;12.10;99.90
36458;DHT22;22480;50.546;12.292;2022-10-22T02:15:20;12.10;99.90
36458;DHT22;22480;50.546;12.292;2022-10-22T02:17:48;12.20;99.90
36458;DHT22;22480;50.546;12.292;2022-10-22T02:20:30;12.20;99.90
36458;DHT22;22480;50.546;12.292;2022-10-22T02:22:59;12.20;99.90
36458;DHT22;22480;50.546;12.292;2022-10-22T02:25:29;12.20;99.90
36458;DHT22;22480;50.546;12.292;2022-10-22T02:30:56;12.20;99.90
36458;DHT22;22480;50.546;12.292;2022-10-22T02:33:39;12.20;99.90
36458;DHT22;22480;50.546;12.292;2022-10-22T02:36:07;12.30;99.90
36458;DHT22;22480;50.546;12.292;2022-10-22T02:38:33;12.30;99.90
36458;DHT22;22480;50.546;12.292;2022-10-22T02:41:00;12.30;99.90
36458;DHT22;22480;50.546;12.292;2022-10-22T02:43:28;12.30;99.90
36458;DHT22;22480;50.546;12.292;2022-10-22T02:45:53;12.30;99.90
36458;DHT22;22480;50.546;12.292;2022-10-22T02:48:19;12.30;99.90
36458;DHT22;22480;50.546;12.292;2022-10-22T02:50:45;12.30;99.90
36458;DHT22;22480;50.546;12.292;2022-10-22T02:53:11;12.30;99.90
36458;DHT22;22480;50.546;12.292;2022-10-22T02:55:37;12.30;99.90
36458;DHT22;22480;50.546;12.292;2022-10-22T02:58:02;12.30;99.90
36458;DHT22;22480;50.546;12.292;2022-10-22T03:00:28;12.30;99.90
36458;DHT22;22480;50.546;12.292;2022-10-22T03:02:54;12.30;99.90
36458;DHT22;22480;50.546;12.292;2022-10-22T03:05:19;12.30;99.90
36458;DHT22;22480;50.546;12.292;2022-10-22T03:07:45;12.30;99.90
36458;DHT22;22480;50.546;12.292;2022-10-22T03:10:11;12.30;99.90
36458;DHT22;22480;50.546;12.292;2022-10-22T03:12:36;12.40;99.90
36458;DHT22;22480;50.546;12.292;2022-10-22T03:15:02;12.40;99.90
36458;DHT22;22480;50.546;12.292;2022-10-22T03:17:28;12.40;99.90
36458;DHT22;22480;50.546;12.292;2022-10-22T03:19:54;12.40;99.90
36458;DHT22;22480;50.546;12.292;2022-10-22T03:22:24;12.40;99.90
36458;DHT22;22480;50.546;12.292;2022-10-22T03:24:53;12.40;99.90
36458;DHT22;22480;50.546;12.292;2022-10-22T03:27:21;12.40;99.90
36458;DHT22;22480;50.546;12.292;2022-10-22T03:29:49;12.40;99.90
36458;DHT22;22480;50.546;12.292;2022-10-22T03:32:15;12.40;99.90
36458;DHT22;22480;50.546;12.292;2022-10-22T03:34:41;12.50;99.90
36458;DHT22;22480;50.546;12.292;2022-10-22T03:37:07;12.50;99.90
36458;DHT22;22480;50.546;12.292;2022-10-22T03:39:33;12.50;99.90
36458;DHT22;22480;50.546;12.292;2022-10-22T03:42:01;12.50;99.90
36458;DHT22;22480;50.546;12.292;2022-10-22T03:44:27;12.50;99.90
36458;DHT22;22480;50.546;12.292;2022-10-22T03:46:54;12.50;99.90
36458;DHT22;22480;50.546;12.292;2022-10-22T03:49:19;12.50;99.90
36458;DHT22;22480;50.546;12.292;2022-10-22T03:51:45;12.50;99.90
36458;DHT22;22480;50.546;12.292;2022-10-22T03:54:11;12.50;99.90
36458;DHT22;22480;50.546;12.292;2022-10-22T03:56:37;12.50;99.90
36458;DHT22;22480;50.546;12.292;2022-10-22T03:59:03;12.50;99.90
36458;DHT22;22480;50.546;12.292;2022-10-22T04:01:29;12.50;99.90
36458;DHT22;22480;50.546;12.292;2022-10-22T04:03:56;12.50;99.90
36458;DHT22;22480;50.546;12.292;2022-10-22T04:06:22;12.50;99.90
36458;DHT22;22480;50.546;12.292;2022-10-22T04:08:48;12.50;99.90
36458;DHT22;22480;50.546;12.292;2022-10-22T04:11:15;12.60;99.90
36458;DHT22;22480;50.546;12.292;2022-10-22T04:13:41;12.50;99.90
36458;DHT22;22480;50.546;12.292;2022-10-22T04:16:13;12.60;99.90
36458;DHT22;22480;50.546;12.292;2022-10-22T04:18:39;12.60;99.90
36458;DHT22;22480;50.546;12.292;2022-10-22T04:21:07;12.60;99.90
36458;DHT22;22480;50.546;12.292;2022-10-22T04:23:33;12.60;99.90
36458;DHT22;22480;50.546;12.292;2022-10-22T04:26:05;12.50;99.90
36458;DHT22;22480;50.546;12.292;2022-10-22T04:28:31;12.60;99.90
36458;DHT22;22480;50.546;12.292;2022-10-22T04:30:56;12.60;99.90
36458;DHT22;22480;50.546;12.292;2022-10-22T04:33:22;12.60;99.90
36458;DHT22;22480;50.546;12.292;2022-10-22T04:35:48;12.60;99.90
36458;DHT22;22480;50.546;12.292;2022-10-22T04:38:14;12.60;99.90
36458;DHT22;22480;50.546;12.292;2022-10-22T04:40:39;12.60;99.90
36458;DHT22;22480;50.546;12.292;2022-10-22T04:43:05;12.60;99.90
36458;DHT22;22480;50.546;12.292;2022-10-22T04:45:34;12.60;99.90
36458;DHT22;22480;50.546;12.292;2022-10-22T04:48:01;12.60;99.90
36458;DHT22;22480;50.546;12.292;2022-10-22T04:50:26;12.60;99.90
36458;DHT22;22480;50.546;12.292;2022-10-22T04:52:52;12.60;99.90
36458;DHT22;22480;50.546;12.292;2022-10-22T04:55:18;12.60;99.90
36458;DHT22;22480;50.546;12.292;2022-10-22T04:57:43;12.60;99.90
36458;DHT22;22480;50.546;12.292;2022-10-22T05:00:10;12.70;99.90
36458;DHT22;22480;50.546;12.292;2022-10-22T05:02:36;12.70;99.90
36458;DHT22;22480;50.546;12.292;2022-10-22T05:05:02;12.70;99.90
36458;DHT22;22480;50.546;12.292;2022-10-22T05:07:27;12.70;99.90
36458;DHT22;22480;50.546;12.292;2022-10-22T05:09:53;12.70;99.90
36458;DHT22;22480;50.546;12.292;2022-10-22T05:12:19;12.70;99.90
36458;DHT22;22480;50.546;12.292;2022-10-22T05:14:45;12.70;99.90
36458;DHT22;22480;50.546;12.292;2022-10-22T05:17:11;12.70;99.90
36458;DHT22;22480;50.546;12.292;2022-10-22T05:19:36;12.70;99.90
36458;DHT22;22480;50.546;12.292;2022-10-22T05:22:03;12.70;99.90
36458;DHT22;22480;50.546;12.292;2022-10-22T05:24:31;12.60;99.90
36458;DHT22;22480;50.546;12.292;2022-10-22T05:26:58;12.60;99.90
36458;DHT22;22480;50.546;12.292;2022-10-22T05:29:25;12.60;99.90
36458;DHT22;22480;50.546;12.292;2022-10-22T05:31:51;12.60;99.90
36458;DHT22;22480;50.546;12.292;2022-10-22T05:34:17;12.70;99.90
36458;DHT22;22480;50.546;12.292;2022-10-22T05:36:44;12.60;99.90
36458;DHT22;22480;50.546;12.292;2022-10-22T05:39:10;12.60;99.90
36458;DHT22;22480;50.546;12.292;2022-10-22T05:41:36;12.60;99.90
36458;DHT22;22480;50.546;12.292;2022-10-22T05:44:03;12.50;99.90
36458;DHT22;22480;50.546;12.292;2022-10-22T05:46:33;12.50;99.90
36458;DHT22;22480;50.546;12.292;2022-10-22T05:49:01;12.50;99.90
36458;DHT22;22480;50.546;12.292;2022-10-22T05:51:29;12.50;99.90
36458;DHT22;22480;50.546;12.292;2022-10-22T05:53:58;12.50;99.90
36458;DHT22;22480;50.546;12.292;2022-10-22T05:56:25;12.50;99.90
36458;DHT22;22480;50.546;12.292;2022-10-22T05:58:51;12.50;99.90
36458;DHT22;22480;50.546;12.292;2022-10-22T06:01:20;12.50;99.90
36458;DHT22;22480;50.546;12.292;2022-10-22T06:03:47;12.50;99.90
36458;DHT22;22480;50.546;12.292;2022-10-22T06:06:21;12.50;99.90
36458;DHT22;22480;50.546;12.292;2022-10-22T06:08:51;12.50;99.90
36458;DHT22;22480;50.546;12.292;2022-10-22T06:11:20;12.50;99.90
36458;DHT22;22480;50.546;12.292;2022-10-22T06:13:46;12.50;99.90
36458;DHT22;22480;50.546;12.292;2022-10-22T06:16:12;12.40;99.90
36458;DHT22;22480;50.546;12.292;2022-10-22T06:18:38;12.40;99.90
36458;DHT22;22480;50.546;12.292;2022-10-22T06:21:05;12.40;99.90
36458;DHT22;22480;50.546;12.292;2022-10-22T06:23:32;12.40;99.90
36458;DHT22;22480;50.546;12.292;2022-10-22T06:25:58;12.40;99.90
36458;DHT22;22480;50.546;12.292;2022-10-22T06:28:25;12.40;99.90
36458;DHT22;22480;50.546;12.292;2022-10-22T06:30:50;12.40;99.90
36458;DHT22;22480;50.546;12.292;2022-10-22T06:33:16;12.40;99.90
36458;DHT22;22480;50.546;12.292;2022-10-22T06:35:42;12.40;99.90
36458;DHT22;22480;50.546;12.292;2022-10-22T06:38:10;12.40;99.90
36458;DHT22;22480;50.546;12.292;2022-10-22T06:40:36;12.30;99.90
36458;DHT22;22480;50.546;12.292;2022-10-22T06:43:02;12.30;99.90
36458;DHT22;22480;50.546;12.292;2022-10-22T06:45:27;12.20;99.90
36458;DHT22;22480;50.546;12.292;2022-10-22T06:47:53;12.20;99.90
36458;DHT22;22480;50.546;12.292;2022-10-22T06:50:20;12.20;99.90
36458;DHT22;22480;50.546;12.292;2022-10-22T06:52:46;12.20;99.90
36458;DHT22;22480;50.546;12.292;2022-10-22T06:55:12;12.10;99.90
36458;DHT22;22480;50.546;12.292;2022-10-22T06:57:38;12.10;99.90
36458;DHT22;22480;50.546;12.292;2022-10-22T07:00:07;12.10;99.90
36458;DHT22;22480;50.546;12.292;2022-10-22T07:02:33;12.10;99.90
36458;DHT22;22480;50.546;12.292;2022-10-22T07:04:59;12.10;99.90
36458;DHT22;22480;50.546;12.292;2022-10-22T07:07:24;12.10;99.90
36458;DHT22;22480;50.546;12.292;2022-10-22T07:09:50;12.10;99.90
36458;DHT22;22480;50.546;12.292;2022-10-22T07:12:16;12.10;99.90
36458;DHT22;22480;50.546;12.292;2022-10-22T07:14:42;12.10;99.90
36458;DHT22;22480;50.546;12.292;2022-10-22T07:17:08;12.10;99.90
36458;DHT22;22480;50.546;12.292;2022-10-22T07:19:34;12.00;99.90
36458;DHT22;22480;50.546;12.292;2022-10-22T07:22:00;12.00;99.90
36458;DHT22;22480;50.546;12.292;2022-10-22T07:24:26;12.00;99.90
36458;DHT22;22480;50.546;12.292;2022-10-22T07:26:52;12.00;99.90
36458;DHT22;22480;50.546;12.292;2022-10-22T07:29:17;12.00;99.90
36458;DHT22;22480;50.546;12.292;2022-10-22T07:31:43;12.00;99.90
36458;DHT22;22480;50.546;12.292;2022-10-22T07:34:09;12.00;99.90
36458;DHT22;22480;50.546;12.292;2022-10-22T07:36:35;12.00;99.90
36458;DHT22;22480;50.546;12.292;2022-10-22T07:39:01;12.00;99.90
36458;DHT22;22480;50.546;12.292;2022-10-22T07:41:29;12.10;99.90
36458;DHT22;22480;50.546;12.292;2022-10-22T07:43:55;12.00;99.90
36458;DHT22;22480;50.546;12.292;2022-10-22T07:46:21;12.00;99.90
36458;DHT22;22480;50.546;12.292;2022-10-22T07:48:47;12.10;99.90
36458;DHT22;22480;50.546;12.292;2022-10-22T07:51:14;12.10;99.90
36458;DHT22;22480;50.546;12.292;2022-10-22T07:53:39;12.10;99.90
36458;DHT22;22480;50.546;12.292;2022-10-22T07:56:06;12.30;99.90
36458;DHT22;22480;50.546;12.292;2022-10-22T07:58:32;12.30;99.90
36458;DHT22;22480;50.546;12.292;2022-10-22T08:00:59;12.50;99.90
36458;DHT22;22480;50.546;12.292;2022-10-22T08:03:26;12.70;99.90
36458;DHT22;22480;50.546;12.292;2022-10-22T08:05:52;12.80;99.90
36458;DHT22;22480;50.546;12.292;2022-10-22T08:08:19;12.80;99.90
36458;DHT22;22480;50.546;12.292;2022-10-22T08:10:47;12.90;99.90
36458;DHT22;22480;50.546;12.292;2022-10-22T08:13:13;13.00;99.90
36458;DHT22;22480;50.546;12.292;2022-10-22T08:15:39;13.10;99.90
36458;DHT22;22480;50.546;12.292;2022-10-22T08:18:06;13.20;99.90
36458;DHT22;22480;50.546;12.292;2022-10-22T08:20:31;13.20;99.90
36458;DHT22;22480;50.546;12.292;2022-10-22T08:22:57;13.20;99.90
36458;DHT22;22480;50.546;12.292;2022-10-22T08:25:24;13.20;99.90
36458;DHT22;22480;50.546;12.292;2022-10-22T08:27:50;13.20;99.90
36458;DHT22;22480;50.546;12.292;2022-10-22T08:30:16;13.20;99.90
36458;DHT22;22480;50.546;12.292;2022-10-22T08:32:42;13.10;99.90
36458;DHT22;22480;50.546;12.292;2022-10-22T08:35:07;13.20;99.90
36458;DHT22;22480;50.546;12.292;2022-10-22T08:37:33;13.20;99.90
36458;DHT22;22480;50.546;12.292;2022-10-22T08:39:59;13.30;99.90
36458;DHT22;22480;50.546;12.292;2022-10-22T08:45:19;13.30;99.90
36458;DHT22;22480;50.546;12.292;2022-10-22T08:47:56;13.40;99.90
36458;DHT22;22480;50.546;12.292;2022-10-22T08:50:40;13.40;99.90
36458;DHT22;22480;50.546;12.292;2022-10-22T08:53:12;13.40;99.90
36458;DHT22;22480;50.546;12.292;2022-10-22T08:55:39;13.40;99.90
36458;DHT22;22480;50.546;12.292;2022-10-22T09:01:02;13.40;99.90
36458;DHT22;22480;50.546;12.292;2022-10-22T09:06:31;13.60;99.90
36458;DHT22;22480;50.546;12.292;2022-10-22T09:08:58;13.70;99.90
36458;DHT22;22480;50.546;12.292;2022-10-22T09:11:26;13.80;99.90
36458;DHT22;22480;50.546;12.292;2022-10-22T09:13:53;13.90;99.90
36458;DHT22;22480;50.546;12.292;2022-10-22T09:16:21;14.00;99.90
36458;DHT22;22480;50.546;12.292;2022-10-22T09:25:13;14.80;99.90
36458;DHT22;22480;50.546;12.292;2022-10-22T09:27:40;15.20;99.90
36458;DHT22;22480;50.546;12.292;2022-10-22T09:30:14;15.40;99.90
36458;DHT22;22480;50.546;12.292;2022-10-22T09:32:40;15.60;99.90
36458;DHT22;22480;50.546;12.292;2022-10-22T09:35:09;15.70;99.90
36458;DHT22;22480;50.546;12.292;2022-10-22T09:37:49;15.70;99.90
36458;DHT22;22480;50.546;12.292;2022-10-22T09:40:16;15.70;99.90
36458;DHT22;22480;50.546;12.292;2022-10-22T09:42:46;15.70;99.90
36458;DHT22;22480;50.546;12.292;2022-10-22T09:45:19;15.70;99.90
36458;DHT22;22480;50.546;12.292;2022-10-22T09:47:45;15.60;99.90
36458;DHT22;22480;50.546;12.292;2022-10-22T09:52:59;15.70;99.90
36458;DHT22;22480;50.546;12.292;2022-10-22T09:55:26;15.80;99.90
36458;DHT22;22480;50.546;12.292;2022-10-22T09:57:57;15.80;99.90
36458;DHT22;22480;50.546;12.292;2022-10-22T10:00:25;15.70;99.90
36458;DHT22;22480;50.546;12.292;2022-10-22T10:02:59;15.50;99.90
36458;DHT22;22480;50.546;12.292;2022-10-22T10:05:33;15.50;99.90
36458;DHT22;22480;50.546;12.292;2022-10-22T10:08:07;15.50;99.90
36458;DHT22;22480;50.546;12.292;2022-10-22T10:13:45;16.50;99.90
36458;DHT22;22480;50.546;12.292;2022-10-22T10:16:39;17.30;99.90
36458;DHT22;22480;50.546;12.292;2022-10-22T10:19:39;17.70;99.90
36458;DHT22;22480;50.546;12.292;2022-10-22T10:25:34;18.60;99.90
36458;DHT22;22480;50.546;12.292;2022-10-22T10:28:43;19.10;99.90
36458;DHT22;22480;50.546;12.292;2022-10-22T10:37:39;18.90;99.90
36458;DHT22;22480;50.546;12.292;2022-10-22T10:40:22;19.00;99.90
36458;DHT22;22480;50.546;12.292;2022-10-22T10:45:41;20.20;99.90
36458;DHT22;22480;50.546;12.292;2022-10-22T10:48:31;20.40;99.90
36458;DHT22;22480;50.546;12.292;2022-10-22T10:57:02;20.70;99.90
36458;DHT22;22480;50.546;12.292;2022-10-22T11:04:48;20.20;99.40
36458;DHT22;22480;50.546;12.292;2022-10-22T11:10:35;20.40;99.90
36458;DHT22;22480;50.546;12.292;2022-10-22T11:21:45;20.20;99.90
36458;DHT22;22480;50.546;12.292;2022-10-22T11:27:06;21.50;99.60
36458;DHT22;22480;50.546;12.292;2022-10-22T11:29:42;22.40;94.90
36458;DHT22;22480;50.546;12.292;2022-10-22T11:32:17;22.70;92.20
36458;DHT22;22480;50.546;12.292;2022-10-22T11:34:55;23.10;91.00
36458;DHT22;22480;50.546;12.292;2022-10-22T11:37:24;22.90;89.90
36458;DHT22;22480;50.546;12.292;2022-10-22T11:39:53;22.60;88.90
36458;DHT22;22480;50.546;12.292;2022-10-22T11:42:53;22.40;86.70
36458;DHT22;22480;50.546;12.292;2022-10-22T11:50:54;22.30;87.70
36458;DHT22;22480;50.546;12.292;2022-10-22T11:55:52;22.40;87.90
36458;DHT22;22480;50.546;12.292;2022-10-22T11:58:41;22.60;87.60
36458;DHT22;22480;50.546;12.292;2022-10-22T12:19:29;22.50;86.00
36458;DHT22;22480;50.546;12.292;2022-10-22T12:22:01;22.50;86.30
36458;DHT22;22480;50.546;12.292;2022-10-22T12:24:40;22.70;86.80
36458;DHT22;22480;50.546;12.292;2022-10-22T12:27:23;23.10;86.30
36458;DHT22;22480;50.546;12.292;2022-10-22T12:29:57;23.20;84.60
36458;DHT22;22480;50.546;12.292;2022-10-22T12:32:38;22.90;89.00
36458;DHT22;22480;50.546;12.292;2022-10-22T12:35:15;22.60;84.90
36458;DHT22;22480;50.546;12.292;2022-10-22T12:37:41;22.70;81.30
36458;DHT22;22480;50.546;12.292;2022-10-22T12:40:21;22.40;82.10
36458;DHT22;22480;50.546;12.292;2022-10-22T12:42:55;22.00;84.70
36458;DHT22;22480;50.546;12.292;2022-10-22T12:45:23;21.80;85.40
36458;DHT22;22480;50.546;12.292;2022-10-22T12:47:58;21.50;88.10
36458;DHT22;22480;50.546;12.292;2022-10-22T12:50:46;21.70;87.90
36458;DHT22;22480;50.546;12.292;2022-10-22T12:55:55;21.70;90.50
36458;DHT22;22480;50.546;12.292;2022-10-22T12:58:33;22.10;87.80
36458;DHT22;22480;50.546;12.292;2022-10-22T13:01:01;21.30;89.00
36458;DHT22;22480;50.546;12.292;2022-10-22T13:03:35;20.40;90.90
36458;DHT22;22480;50.546;12.292;2022-10-22T13:11:48;19.00;97.70
36458;DHT22;22480;50.546;12.292;2022-10-22T13:14:19;18.60;98.70
36458;DHT22;22480;50.546;12.292;2022-10-22T13:17:06;18.10;99.90
36458;DHT22;22480;50.546;12.292;2022-10-22T13:19:36;17.50;99.90
36458;DHT22;22480;50.546;12.292;2022-10-22T13:22:02;17.40;99.90
36458;DHT22;22480;50.546;12.292;2022-10-22T13:24:27;17.70;99.90
36458;DHT22;22480;50.546;12.292;2022-10-22T13:26:55;17.80;99.90
36458;DHT22;22480;50.546;12.292;2022-10-22T13:29:23;17.50;99.90
36458;DHT22;22480;50.546;12.292;2022-10-22T13:31:51;17.30;99.90
36458;DHT22;22480;50.546;12.292;2022-10-22T13:34:20;17.20;99.90
36458;DHT22;22480;50.546;12.292;2022-10-22T13:36:47;16.90;99.90
36458;DHT22;22480;50.546;12.292;2022-10-22T13:39:18;16.90;99.90
36458;DHT22;22480;50.546;12.292;2022-10-22T13:41:44;17.00;99.90
36458;DHT22;22480;50.546;12.292;2022-10-22T13:44:09;17.00;99.90
36458;DHT22;22480;50.546;12.292;2022-10-22T13:46:35;17.10;99.90
36458;DHT22;22480;50.546;12.292;2022-10-22T13:49:15;16.80;99.90
36458;DHT22;22480;50.546;12.292;2022-10-22T13:51:42;16.40;99.90
36458;DHT22;22480;50.546;12.292;2022-10-22T13:54:16;16.20;99.90
36458;DHT22;22480;50.546;12.292;2022-10-22T13:56:43;16.10;99.90
36458;DHT22;22480;50.546;12.292;2022-10-22T13:59:09;16.20;99.90
36458;DHT22;22480;50.546;12.292;2022-10-22T14:01:35;16.10;99.90
36458;DHT22;22480;50.546;12.292;2022-10-22T14:04:03;16.80;99.90
36458;DHT22;22480;50.546;12.292;2022-10-22T14:06:30;18.00;99.90
36458;DHT22;22480;50.546;12.292;2022-10-22T14:09:03;18.90;99.90
36458;DHT22;22480;50.546;12.292;2022-10-22T14:11:28;18.70;99.90
36458;DHT22;22480;50.546;12.292;2022-10-22T14:13:57;18.10;99.90
36458;DHT22;22480;50.546;12.292;2022-10-22T14:16:26;17.90;99.90
36458;DHT22;22480;50.546;12.292;2022-10-22T14:18:53;18.10;99.90
36458;DHT22;22480;50.546;12.292;2022-10-22T14:21:19;18.30;99.90
36458;DHT22;22480;50.546;12.292;2022-10-22T14:23:46;18.20;99.90
36458;DHT22;22480;50.546;12.292;2022-10-22T14:26:30;18.90;99.90
36458;DHT22;22480;50.546;12.292;2022-10-22T14:29:01;19.60;99.90
36458;DHT22;22480;50.546;12.292;2022-10-22T14:31:27;19.30;99.90
36458;DHT22;22480;50.546;12.292;2022-10-22T14:33:53;19.20;99.90
36458;DHT22;22480;50.546;12.292;2022-10-22T14:36:19;19.00;99.90
36458;DHT22;22480;50.546;12.292;2022-10-22T14:38:47;18.60;99.90
36458;DHT22;22480;50.546;12.292;2022-10-22T14:41:21;18.70;99.90
36458;DHT22;22480;50.546;12.292;2022-10-22T14:43:48;19.50;99.90
36458;DHT22;22480;50.546;12.292;2022-10-22T14:46:16;20.10;99.90
36458;DHT22;22480;50.546;12.292;2022-10-22T14:48:42;20.20;99.90
36458;DHT22;22480;50.546;12.292;2022-10-22T14:51:16;20.40;99.90
36458;DHT22;22480;50.546;12.292;2022-10-22T14:53:42;20.20;99.90
36458;DHT22;22480;50.546;12.292;2022-10-22T14:56:12;19.80;99.90
36458;DHT22;22480;50.546;12.292;2022-10-22T14:58:39;19.70;99.90
36458;DHT22;22480;50.546;12.292;2022-10-22T15:01:05;19.70;99.90
36458;DHT22;22480;50.546;12.292;2022-10-22T15:03:31;19.90;99.90
36458;DHT22;22480;50.546;12.292;2022-10-22T15:05:57;20.10;99.90
36458;DHT22;22480;50.546;12.292;2022-10-22T15:08:23;20.20;99.90
36458;DHT22;22480;50.546;12.292;2022-10-22T15:11:00;20.20;99.90
36458;DHT22;22480;50.546;12.292;2022-10-22T15:13:27;20.40;99.90
36458;DHT22;22480;50.546;12.292;2022-10-22T15:15:54;20.10;99.90
36458;DHT22;22480;50.546;12.292;2022-10-22T15:18:19;20.00;99.90
36458;DHT22;22480;50.546;12.292;2022-10-22T15:21:17;19.50;99.90
36458;DHT22;22480;50.546;12.292;2022-10-22T15:23:39;19.00;99.90
36458;DHT22;22480;50.546;12.292;2022-10-22T15:26:09;18.70;99.90
36458;DHT22;22480;50.546;12.292;2022-10-22T15:28:36;18.80;99.90
36458;DHT22;22480;50.546;12.292;2022-10-22T15:31:02;18.20;99.90
36458;DHT22;22480;50.546;12.292;2022-10-22T15:33:28;17.50;99.90
36458;DHT22;22480;50.546;12.292;2022-10-22T15:35:55;16.80;99.90
36458;DHT22;22480;50.546;12.292;2022-10-22T15:38:26;16.20;99.90
36458;DHT22;22480;50.546;12.292;2022-10-22T15:41:03;15.60;99.90
36458;DHT22;22480;50.546;12.292;2022-10-22T15:43:30;15.10;99.90
36458;DHT22;22480;50.546;12.292;2022-10-22T15:46:17;14.80;99.90
36458;DHT22;22480;50.546;12.292;2022-10-22T15:48:44;14.50;99.90
36458;DHT22;22480;50.546;12.292;2022-10-22T15:51:15;14.20;99.90
36458;DHT22;22480;50.546;12.292;2022-10-22T15:53:41;14.00;99.90
36458;DHT22;22480;50.546;12.292;2022-10-22T15:56:08;13.80;99.90
36458;DHT22;22480;50.546;12.292;2022-10-22T15:58:34;13.70;99.90
36458;DHT22;22480;50.546;12.292;2022-10-22T16:01:09;13.60;99.90
36458;DHT22;22480;50.546;12.292;2022-10-22T16:03:35;13.40;99.90
36458;DHT22;22480;50.546;12.292;2022-10-22T16:06:01;13.30;99.90
36458;DHT22;22480;50.546;12.292;2022-10-22T16:08:27;13.20;99.90
36458;DHT22;22480;50.546;12.292;2022-10-22T16:10:53;13.10;99.90
36458;DHT22;22480;50.546;12.292;2022-10-22T16:13:21;12.90;99.90
36458;DHT22;22480;50.546;12.292;2022-10-22T16:15:49;12.80;99.90
36458;DHT22;22480;50.546;12.292;2022-10-22T16:18:16;12.70;99.90
36458;DHT22;22480;50.546;12.292;2022-10-22T16:20:42;12.60;99.90
36458;DHT22;22480;50.546;12.292;2022-10-22T16:23:07;12.40;99.90
36458;DHT22;22480;50.546;12.292;2022-10-22T16:25:38;12.40;99.90
36458;DHT22;22480;50.546;12.292;2022-10-22T16:28:04;12.30;99.90
36458;DHT22;22480;50.546;12.292;2022-10-22T16:30:34;12.20;99.90
36458;DHT22;22480;50.546;12.292;2022-10-22T16:33:01;12.10;99.90
36458;DHT22;22480;50.546;12.292;2022-10-22T16:35:27;12.10;99.90
36458;DHT22;22480;50.546;12.292;2022-10-22T16:37:53;12.10;99.90
36458;DHT22;22480;50.546;12.292;2022-10-22T16:40:19;12.10;99.90
36458;DHT22;22480;50.546;12.292;2022-10-22T16:42:45;12.10;99.90
36458;DHT22;22480;50.546;12.292;2022-10-22T16:45:10;12.00;99.90
36458;DHT22;22480;50.546;12.292;2022-10-22T16:47:36;11.90;99.90
36458;DHT22;22480;50.546;12.292;2022-10-22T16:50:04;11.80;99.90
36458;DHT22;22480;50.546;12.292;2022-10-22T16:52:29;11.80;99.90
36458;DHT22;22480;50.546;12.292;2022-10-22T16:54:55;11.70;99.90
36458;DHT22;22480;50.546;12.292;2022-10-22T16:57:23;11.60;99.90
36458;DHT22;22480;50.546;12.292;2022-10-22T16:59:48;11.50;99.90
36458;DHT22;22480;50.546;12.292;2022-10-22T17:02:15;11.50;99.90
36458;DHT22;22480;50.546;12.292;2022-10-22T17:04:41;11.40;99.90
36458;DHT22;22480;50.546;12.292;2022-10-22T17:07:06;11.40;99.90
36458;DHT22;22480;50.546;12.292;2022-10-22T17:09:32;11.30;99.90
36458;DHT22;22480;50.546;12.292;2022-10-22T17:11:58;11.20;99.90
36458;DHT22;22480;50.546;12.292;2022-10-22T17:14:23;11.30;99.90
36458;DHT22;22480;50.546;12.292;2022-10-22T17:16:49;11.40;99.90
36458;DHT22;22480;50.546;12.292;2022-10-22T17:19:19;11.40;99.90
36458;DHT22;22480;50.546;12.292;2022-10-22T17:21:46;11.60;99.90
36458;DHT22;22480;50.546;12.292;2022-10-22T17:24:13;11.70;99.90
36458;DHT22;22480;50.546;12.292;2022-10-22T17:26:39;11.80;99.90